AirNav   Air Wisconsin Up To $57,000 Bonus
 
 1166 users online  

WI87 Pine River Airport
Merrill, Wisconsin, USA

GOING TO MERRILL?


FAA INFORMATION EFFECTIVE 02 JANUARY 2020

Location

FAA Identifier: WI87
Lat/Long: 45-12-12.0000N 089-31-28.0000W
45-12.200000N 089-31.466667W
45.2033333,-89.5244444
(estimated)
Elevation: 1370 ft. / 418 m (estimated)
Variation: 01W (1990)
From city: 8 miles E of MERRILL, WI
Time zone: UTC -6 (UTC -5 during Daylight Saving Time)
Zip code: 54452

Airport Operations

Airport use: Private use. Permission required prior to landing
Activation date: 07/1995
Control tower: no
ARTCC: MINNEAPOLIS CENTER
FSS: GREEN BAY FLIGHT SERVICE STATION
Attendance: UNATNDD
Wind indicator: yes
Segmented circle: no

Airport Communications

WX AWOS-3 at RRL (8 nm W): 119.925 (715-539-8422)
WX ASOS at AUW (17 nm S): 125.925 (715-843-7215)
WX AWOS-3 at AIG (18 nm E): 119.075 (715-627-2869)
WX AWOS-3 at TKV (20 nm NW): 118.250 (715-453-5716)

Nearby radio navigation aids

VOR radial/distance  VOR name  Freq  Var
AUWr005/21.6WAUSAU VORTAC111.6002E
RHIr184/26.0RHINELANDER VOR/DME109.2002E

Airport Services

Runway Information

Runway 9/27

Dimensions: 1550 x 80 ft. / 472 x 24 m
Surface: turf, in good condition
Runway edge markings: 09/27 MKD WITH ORANGE CONES ALONG RY EDGE & BLACK/YELLOW 'L' PANELS AT EACH RY END.
Operational restrictions: NOT PLOWED IN WINTER.
RUNWAY 9  RUNWAY 27
Traffic pattern: leftleft
Obstructions: 50 ft. trees, 1090 ft. from runway20 ft. trees, 400 ft. from runway

Airport Ownership and Management from official FAA records

Ownership: Privately-owned
Owner: KEVIN & BRIAN NEITZEL
W 2021 TOWNLINE RD
MERRILL, WI 54452
Phone 715-536-7394
Manager: KEVIN NEITZEL
W 2021 TOWNLINE RD
MERRILL, WI 54452
Phone 414-771-4068

Airport Operational Statistics

Aircraft based on the field: 5
Single engine airplanes: 4
Ultralights: 1
    

Additional Remarks

FOR CD CTC MINNEAPOLIS ARTCC AT 651-463-5588.

Instrument Procedures

There are no published instrument procedures at WI87.

Some nearby airports with instrument procedures:

KRRL - Merrill Municipal Airport (8 nm W)
KAUW - Wausau Downtown Airport (17 nm S)
KAIG - Langlade County Airport (18 nm E)
KTKV - Tomahawk Regional Airport (20 nm NW)
KRHI - Rhinelander-Oneida County Airport (26 nm N)
 
Loc | Ops | Rwys | IFR | FBO | Links
Com | Nav | Svcs | Stats | Notes
Aerial photo
No photo
 
Sectional chart

 
Airport distance calculator
Flying to Pine River Airport? Find the distance to fly.

From to WI87

Sunrise and sunset
Times for 21-Jan-2020
 Local
(UTC-6)
 Zulu
(UTC)
Morning civil twilight06:5812:58
Sunrise07:3013:30
Sunset16:4922:49
Evening civil twilight17:2123:21

Current date and time
Zulu (UTC)  22-Jan-2020 00:50:42
Local (UTC-6)  21-Jan-2020 18:50:42
 
METAR
KRRL 
8nm W 
220035Z AUTO 21006KT 10SM CLR M08/M13 A3016 RMK AO2 T10801126 TSNO
KAUW 
17nm S 
212354Z AUTO 18009KT 10SM M07/M13 A3017 RMK AO2 SLP249 T10721128 11061 21094 $
KTKV 
20nm NW 
220035Z AUTO 18003KT 10SM CLR M10/M13 A3013 RMK AO2 T11001134
KAIG 
20nm SE 
220035Z AUTO 20009KT 10SM CLR M09/M13 A3015 RMK AO2 T10931129
TAF
KAUW 
17nm S 
211723Z 2118/2218 22009G16KT P6SM SCT250 FM212300 21008KT P6SM SCT250 FM220300 21007G16KT P6SM BKN250 WS015/23045KT FM221000 21008G17KT P6SM OVC025 WS015/23045KT FM221600 21010G18KT 4SM -SN OVC012
NOTAMs
Click for the latest NOTAMs
NOTAMs are issued by the DoD/FAA and will open in a separate window not controlled by AirNav.

 

 
 

Would you like to see your business listed on this page?

 If your business provides an interesting product or service to pilots, flight crews, aircraft, or users of the Pine River Airport, you should consider listing it here.  To start the listing process, click on the button below
 
Add a business
 

Other Pages about Pine River Airport

Update a link
 
Copyright © AirNav, LLC. All rights reserved. Privacy Policy  Contact